createdAt,value
2024-01-04T00:01:20.564Z,9.97
2024-01-04T00:03:25.981Z,10.23
2024-01-04T00:05:30.463Z,10.21
2024-01-04T00:07:32.438Z,10.41
2024-01-04T00:09:35.468Z,9.84
2024-01-04T00:11:38.485Z,10.33
2024-01-04T00:13:41.516Z,10.04
2024-01-04T00:15:44.565Z,10.35
2024-01-04T00:17:47.625Z,9.90
2024-01-04T00:19:50.915Z,10.31
2024-01-04T00:21:55.218Z,10.50
2024-01-04T00:23:59.138Z,10.18
2024-01-04T00:26:01.662Z,10.21
2024-01-04T00:28:04.950Z,10.55
2024-01-04T00:30:09.619Z,10.16
2024-01-04T00:32:12.691Z,10.21
2024-01-04T00:34:16.195Z,10.59
2024-01-04T00:36:18.905Z,10.28
2024-01-04T00:38:23.383Z,10.40
2024-01-04T00:40:26.411Z,10.43
2024-01-04T00:42:29.367Z,10.41
2024-01-04T00:44:32.354Z,10.42
2024-01-04T00:46:35.383Z,10.64
2024-01-04T00:48:37.990Z,10.52
2024-01-04T00:50:41.375Z,10.36
2024-01-04T00:52:43.323Z,10.80
2024-01-04T00:54:47.980Z,10.50
2024-01-04T00:56:50.885Z,10.80
2024-01-04T00:58:53.864Z,10.12
2024-01-04T01:00:58.690Z,10.74
2024-01-04T01:03:00.860Z,10.15
2024-01-04T01:05:03.898Z,10.45
2024-01-04T01:07:07.018Z,10.71
2024-01-04T01:09:09.113Z,10.28
2024-01-04T01:11:13.668Z,10.44
2024-01-04T01:13:21.377Z,10.45
2024-01-04T01:15:24.423Z,10.64
2024-01-04T01:17:28.701Z,10.83
2024-01-04T01:19:31.898Z,10.77
2024-01-04T01:21:35.083Z,10.72
2024-01-04T01:23:38.162Z,10.76
2024-01-04T01:25:41.146Z,10.93
2024-01-04T01:27:46.066Z,10.50
2024-01-04T01:29:49.190Z,10.90
2024-01-04T01:31:51.173Z,10.60
2024-01-04T01:33:54.288Z,10.72
2024-01-04T01:35:57.387Z,10.81
2024-01-04T01:38:00.437Z,10.47
2024-01-04T01:40:03.664Z,10.78
2024-01-04T01:42:06.393Z,10.97
2024-01-04T01:44:12.155Z,10.83
2024-01-04T01:46:15.140Z,10.70
2024-01-04T01:48:18.287Z,10.82
2024-01-04T01:50:23.508Z,10.65
2024-01-04T01:52:26.788Z,10.78
2024-01-04T01:54:29.785Z,10.98
2024-01-04T01:56:32.214Z,11.19
2024-01-04T01:58:35.429Z,11.06
2024-01-04T02:00:40.219Z,11.23
2024-01-04T02:02:46.249Z,10.97
2024-01-04T02:04:49.951Z,10.95
2024-01-04T02:06:52.142Z,11.02
2024-01-04T02:08:55.317Z,11.21
2024-01-04T02:10:57.346Z,11.12
2024-01-04T02:13:00.641Z,10.77
2024-01-04T02:15:02.710Z,10.96
2024-01-04T02:17:07.357Z,11.12
2024-01-04T02:19:10.887Z,11.14
2024-01-04T02:21:14.047Z,11.22
2024-01-04T02:23:18.377Z,10.80
2024-01-04T02:25:21.317Z,10.73
2024-01-04T02:27:24.334Z,10.75
2024-01-04T02:29:27.816Z,10.87
2024-01-04T02:31:30.793Z,11.09
2024-01-04T02:33:34.111Z,10.83
2024-01-04T02:35:37.172Z,10.64
2024-01-04T02:37:40.484Z,10.97
2024-01-04T02:39:45.131Z,11.15
2024-01-04T02:41:48.613Z,10.51
2024-01-04T02:43:51.990Z,10.67
2024-01-04T02:45:55.029Z,10.86
2024-01-04T02:47:58.212Z,10.86
2024-01-04T02:50:01.958Z,10.98
2024-01-04T02:52:05.249Z,11.14
2024-01-04T02:54:09.175Z,11.06
2024-01-04T02:56:13.664Z,11.13
2024-01-04T02:58:16.645Z,11.03
2024-01-04T03:00:20.683Z,11.09
2024-01-04T03:02:23.782Z,11.20
2024-01-04T03:04:26.757Z,10.97
2024-01-04T03:06:31.637Z,11.18
2024-01-04T03:08:34.897Z,11.07
2024-01-04T03:10:37.892Z,11.09
2024-01-04T03:12:42.428Z,11.19
2024-01-04T03:14:44.569Z,11.04
2024-01-04T03:16:47.575Z,10.98
2024-01-04T03:18:50.938Z,11.05
2024-01-04T03:20:54.101Z,11.01
2024-01-04T03:22:57.021Z,10.99
2024-01-04T03:24:59.938Z,10.91
2024-01-04T03:27:02.929Z,11.21
2024-01-04T03:29:07.215Z,11.05
2024-01-04T03:31:10.271Z,11.02
2024-01-04T03:33:13.564Z,11.22
2024-01-04T03:35:16.768Z,11.20
2024-01-04T03:37:19.802Z,11.08
2024-01-04T03:39:23.147Z,11.22
2024-01-04T03:41:26.278Z,10.95
2024-01-04T03:43:29.236Z,11.03
2024-01-04T03:45:34.202Z,10.91
2024-01-04T03:47:37.343Z,10.60
2024-01-04T03:49:40.590Z,10.25
2024-01-04T03:51:43.675Z,10.80
2024-01-04T03:53:45.628Z,10.65
2024-01-04T03:55:49.243Z,10.73
2024-01-04T03:57:52.385Z,10.96
2024-01-04T03:59:55.459Z,11.02
2024-01-04T04:01:59.804Z,10.93
2024-01-04T04:04:03.104Z,11.10
2024-01-04T04:06:07.255Z,11.09
2024-01-04T04:08:10.243Z,10.42
2024-01-04T04:10:13.310Z,10.96
2024-01-04T04:12:16.365Z,11.03
2024-01-04T04:14:19.562Z,11.03
2024-01-04T04:16:22.701Z,10.64
2024-01-04T04:18:27.467Z,10.85
2024-01-04T04:20:30.850Z,10.50
2024-01-04T04:22:35.480Z,10.35
2024-01-04T04:24:38.560Z,10.60
2024-01-04T04:26:41.776Z,10.77
2024-01-04T04:28:44.062Z,10.79
2024-01-04T04:30:47.034Z,10.45
2024-01-04T04:32:50.295Z,10.75
2024-01-04T04:34:54.701Z,10.78
2024-01-04T04:36:57.683Z,10.94
2024-01-04T04:39:03.641Z,10.48
2024-01-04T04:41:07.468Z,10.74
2024-01-04T04:43:10.549Z,10.54
2024-01-04T04:45:13.753Z,10.55
2024-01-04T04:47:16.833Z,10.55
2024-01-04T04:49:20.111Z,10.50
2024-01-04T04:51:24.880Z,10.59
2024-01-04T04:53:27.904Z,10.61
2024-01-04T04:55:30.730Z,10.53
2024-01-04T04:57:33.730Z,10.60
2024-01-04T04:59:36.945Z,10.50
2024-01-04T05:01:41.054Z,10.48
2024-01-04T05:03:45.551Z,10.72
2024-01-04T05:05:49.808Z,10.75
2024-01-04T05:07:54.157Z,10.65
2024-01-04T05:09:57.273Z,10.15
2024-01-04T05:12:00.162Z,10.36
2024-01-04T05:14:03.803Z,10.36
2024-01-04T05:16:08.409Z,10.43
2024-01-04T05:18:12.068Z,10.25
2024-01-04T05:20:16.692Z,10.47
2024-01-04T05:22:20.385Z,10.72
2024-01-04T05:24:25.166Z,10.31
2024-01-04T05:26:28.545Z,10.56
2024-01-04T05:28:31.828Z,10.56
2024-01-04T05:30:35.176Z,10.74
2024-01-04T05:32:39.190Z,10.77
2024-01-04T05:34:44.489Z,10.58
2024-01-04T05:36:47.635Z,10.68
2024-01-04T05:38:50.609Z,10.42
2024-01-04T05:40:53.961Z,10.61
2024-01-04T05:42:58.816Z,10.54
2024-01-04T05:45:01.845Z,10.41
2024-01-04T05:47:06.194Z,10.46
2024-01-04T05:49:09.216Z,10.55
2024-01-04T05:51:15.235Z,10.33
2024-01-04T05:53:18.817Z,10.56
2024-01-04T05:55:21.793Z,10.38
2024-01-04T05:57:28.644Z,10.41
2024-01-04T05:59:31.749Z,10.32
2024-01-04T06:01:35.138Z,10.47
2024-01-04T06:03:38.965Z,9.78
2024-01-04T06:05:42.255Z,9.96
2024-01-04T06:07:44.466Z,9.84
2024-01-04T06:09:47.420Z,9.65
2024-01-04T06:11:49.512Z,9.93
2024-01-04T06:13:54.121Z,10.09
2024-01-04T06:15:57.427Z,10.29
2024-01-04T06:18:00.820Z,10.19
2024-01-04T06:20:04.026Z,10.29
2024-01-04T06:22:06.958Z,10.41
2024-01-04T06:24:10.168Z,10.49
2024-01-04T06:26:19.382Z,10.46
2024-01-04T06:28:22.369Z,10.38
2024-01-04T06:30:26.943Z,10.16
2024-01-04T06:32:29.113Z,10.47
2024-01-04T06:34:32.246Z,10.41
2024-01-04T06:36:35.323Z,10.35
2024-01-04T06:38:38.372Z,10.36
2024-01-04T06:40:42.014Z,10.32
2024-01-04T06:42:47.184Z,10.54
2024-01-04T06:44:50.414Z,10.47
2024-01-04T06:46:54.731Z,10.23
2024-01-04T06:48:57.892Z,10.38
2024-01-04T06:51:01.449Z,10.31
2024-01-04T06:53:04.739Z,10.40
2024-01-04T06:55:08.113Z,10.56
2024-01-04T06:57:12.291Z,10.27
2024-01-04T06:59:15.327Z,10.33
2024-01-04T07:01:19.718Z,10.36
2024-01-04T07:03:24.054Z,10.60
2024-01-04T07:05:27.193Z,10.21
2024-01-04T07:07:29.157Z,10.33
2024-01-04T07:09:33.299Z,10.45
2024-01-04T07:11:36.309Z,10.52
2024-01-04T07:13:39.312Z,10.60
2024-01-04T07:15:42.335Z,10.62
2024-01-04T07:17:45.375Z,10.51
2024-01-04T07:19:49.848Z,10.52
2024-01-04T07:21:52.790Z,10.55
2024-01-04T07:23:56.808Z,10.64
2024-01-04T07:25:59.763Z,10.67
2024-01-04T07:28:04.755Z,10.57
2024-01-04T07:30:10.176Z,10.46
2024-01-04T07:32:12.833Z,10.51
2024-01-04T07:34:15.877Z,10.38
2024-01-04T07:36:20.262Z,10.30
2024-01-04T07:38:23.687Z,10.34
2024-01-04T07:40:27.070Z,10.38
2024-01-04T07:42:30.598Z,10.59
2024-01-04T07:44:33.577Z,10.36
2024-01-04T07:46:36.533Z,10.12
2024-01-04T07:48:39.915Z,10.44
2024-01-04T07:50:43.523Z,10.43
2024-01-04T07:52:47.958Z,10.63
2024-01-04T07:54:51.652Z,10.78
2024-01-04T07:56:55.131Z,10.79
2024-01-04T07:58:58.277Z,10.80
2024-01-04T08:01:02.930Z,10.74
2024-01-04T08:03:06.677Z,10.46
2024-01-04T08:05:11.026Z,10.54
2024-01-04T08:07:14.099Z,10.66
2024-01-04T08:09:19.573Z,10.90
2024-01-04T08:11:23.990Z,10.70
2024-01-04T08:13:27.011Z,10.79
2024-01-04T08:15:30.583Z,10.85
2024-01-04T08:17:32.621Z,10.94
2024-01-04T08:19:36.366Z,10.81
2024-01-04T08:21:39.537Z,10.99
2024-01-04T08:23:43.389Z,11.04
2024-01-04T08:25:47.126Z,10.92
2024-01-04T08:27:50.083Z,10.85
2024-01-04T08:29:52.382Z,10.96
2024-01-04T08:31:55.637Z,10.90
2024-01-04T08:33:59.145Z,10.74
2024-01-04T08:36:03.036Z,10.70
2024-01-04T08:38:09.282Z,10.56
2024-01-04T08:40:12.976Z,10.63
2024-01-04T08:42:21.033Z,10.55
2024-01-04T08:44:24.180Z,10.42
2024-01-04T08:46:27.581Z,10.53
2024-01-04T08:48:31.049Z,10.58
2024-01-04T08:50:34.259Z,10.37
2024-01-04T08:52:37.613Z,10.55
2024-01-04T08:54:39.622Z,10.41
2024-01-04T08:56:42.563Z,10.46
2024-01-04T08:58:47.056Z,10.53
2024-01-04T09:00:53.647Z,10.55
2024-01-04T09:02:57.540Z,10.72
2024-01-04T09:05:01.921Z,10.74
2024-01-04T09:07:05.429Z,10.81
2024-01-04T09:09:09.453Z,10.91
2024-01-04T09:11:12.612Z,10.83
2024-01-04T09:13:16.672Z,10.92
2024-01-04T09:15:21.274Z,11.05
2024-01-04T09:17:23.352Z,11.08
2024-01-04T09:19:28.195Z,11.10
2024-01-04T09:21:32.298Z,10.88
2024-01-04T09:23:35.247Z,11.07
2024-01-04T09:25:38.557Z,10.64
2024-01-04T09:27:41.515Z,10.84
2024-01-04T09:29:45.429Z,10.73
2024-01-04T09:31:51.082Z,10.63
2024-01-04T09:33:56.021Z,10.79
2024-01-04T09:36:01.520Z,10.75
2024-01-04T09:38:04.897Z,10.80
2024-01-04T09:40:08.046Z,11.16
2024-01-04T09:42:12.004Z,11.11
2024-01-04T09:44:15.385Z,11.19
2024-01-04T09:46:22.217Z,11.33
2024-01-04T09:48:34.786Z,11.43
2024-01-04T09:50:38.734Z,11.43
2024-01-04T09:52:45.471Z,11.26
2024-01-04T09:54:48.868Z,11.18
2024-01-04T09:56:55.156Z,11.28
2024-01-04T09:58:57.224Z,11.18
2024-01-04T10:01:01.933Z,11.29
2024-01-04T10:03:05.729Z,11.33
2024-01-04T10:05:11.292Z,11.26
2024-01-04T10:07:19.013Z,11.37
2024-01-04T10:09:26.757Z,11.36
2024-01-04T10:11:34.187Z,11.28
2024-01-04T10:13:37.956Z,11.30
2024-01-04T10:15:44.729Z,11.24
2024-01-04T10:17:49.094Z,11.05
2024-01-04T10:19:52.406Z,11.09
2024-01-04T10:22:02.065Z,11.02
2024-01-04T10:24:05.524Z,11.04
2024-01-04T10:26:10.283Z,11.09
2024-01-04T10:28:21.333Z,11.17
2024-01-04T10:30:23.516Z,11.06
2024-01-04T10:32:26.715Z,11.01
2024-01-04T10:34:29.643Z,10.98
2024-01-04T10:36:34.143Z,10.90
2024-01-04T10:38:37.665Z,11.08
2024-01-04T10:40:41.033Z,11.08
2024-01-04T10:42:54.586Z,10.90
2024-01-04T10:44:58.671Z,10.90
2024-01-04T10:47:02.937Z,10.76
2024-01-04T10:49:06.866Z,10.84
2024-01-04T10:51:10.935Z,10.84
2024-01-04T10:53:14.823Z,10.71
2024-01-04T10:55:21.378Z,10.80
2024-01-04T10:57:25.349Z,10.57
2024-01-04T10:59:30.290Z,10.58
2024-01-04T11:01:33.295Z,10.78
2024-01-04T11:03:36.388Z,10.66
2024-01-04T11:05:41.051Z,10.74
2024-01-04T11:07:44.522Z,10.75
2024-01-04T11:09:47.553Z,10.78
2024-01-04T11:11:54.192Z,10.67
2024-01-04T11:13:57.299Z,10.93
2024-01-04T11:16:02.089Z,10.95
2024-01-04T11:18:23.042Z,10.85
2024-01-04T11:20:32.482Z,11.05
2024-01-04T11:22:58.752Z,11.00
2024-01-04T11:25:07.865Z,10.88
2024-01-04T11:27:15.506Z,11.15
2024-01-04T11:29:18.549Z,10.69
2024-01-04T11:31:24.849Z,10.77
2024-01-04T11:33:29.431Z,11.07
2024-01-04T11:35:35.902Z,11.00
2024-01-04T11:37:39.201Z,11.23
2024-01-04T11:40:01.500Z,11.29
2024-01-04T11:42:16.368Z,11.16
2024-01-04T11:44:19.693Z,11.18
2024-01-04T11:46:24.020Z,11.19
2024-01-04T11:48:30.449Z,11.33
2024-01-04T11:50:33.616Z,11.45
2024-01-04T11:52:36.577Z,10.91
2024-01-04T11:54:43.027Z,11.02
2024-01-04T11:56:46.768Z,10.96
2024-01-04T11:58:50.391Z,10.94
2024-01-04T12:00:54.139Z,11.20
2024-01-04T12:02:57.752Z,11.34
2024-01-04T12:05:00.583Z,11.31
2024-01-04T12:07:05.570Z,11.46
2024-01-04T12:09:09.255Z,11.51
2024-01-04T12:11:13.687Z,11.31
2024-01-04T12:13:17.656Z,11.27
2024-01-04T12:15:23.741Z,11.60
2024-01-04T12:17:26.201Z,11.62
2024-01-04T12:19:30.164Z,11.59
2024-01-04T12:21:35.981Z,11.70
2024-01-04T12:23:39.279Z,10.97
2024-01-04T12:25:43.211Z,11.38
2024-01-04T12:27:47.165Z,11.25
2024-01-04T12:29:50.370Z,11.42
2024-01-04T12:31:55.582Z,11.67
2024-01-04T12:33:59.688Z,11.79
2024-01-04T12:36:03.319Z,11.72
2024-01-04T12:38:07.395Z,11.66
2024-01-04T12:40:14.071Z,11.33
2024-01-04T12:42:17.157Z,11.57
2024-01-04T12:44:22.876Z,11.68
2024-01-04T12:46:28.507Z,11.46
2024-01-04T12:48:33.155Z,11.43
2024-01-04T12:50:38.397Z,11.47
2024-01-04T12:52:42.118Z,11.35
2024-01-04T12:54:45.567Z,11.43
2024-01-04T12:56:54.046Z,11.40
2024-01-04T12:58:57.901Z,11.50
2024-01-04T13:01:00.829Z,11.17
2024-01-04T13:03:04.060Z,11.75
2024-01-04T13:05:10.350Z,11.46
2024-01-04T13:07:13.661Z,11.71
2024-01-04T13:09:19.120Z,11.70
2024-01-04T13:11:22.525Z,11.91
2024-01-04T13:13:28.740Z,12.02
2024-01-04T13:15:33.234Z,11.78
2024-01-04T13:17:37.172Z,11.66
2024-01-04T13:19:42.565Z,11.85
2024-01-04T13:21:50.908Z,11.42
2024-01-04T13:23:54.102Z,11.49
2024-01-04T13:25:57.317Z,11.53
2024-01-04T13:28:00.951Z,11.53
2024-01-04T13:30:04.368Z,11.55
2024-01-04T13:32:09.149Z,11.74
2024-01-04T13:34:13.312Z,11.75
2024-01-04T13:36:16.485Z,11.81
2024-01-04T13:38:20.860Z,11.89
2024-01-04T13:40:24.342Z,11.47
2024-01-04T13:42:27.925Z,11.94
2024-01-04T13:44:30.849Z,12.07
2024-01-04T13:46:34.135Z,11.37
2024-01-04T13:48:37.266Z,11.59
2024-01-04T13:50:40.794Z,11.67
2024-01-04T13:52:42.952Z,11.70
2024-01-04T13:54:47.433Z,11.65
2024-01-04T13:56:50.408Z,10.99
2024-01-04T13:58:53.497Z,11.62
2024-01-04T14:00:56.486Z,11.62
2024-01-04T14:02:59.564Z,11.74
2024-01-04T14:05:02.718Z,11.54
2024-01-04T14:07:05.833Z,11.26
2024-01-04T14:09:09.239Z,11.38
2024-01-04T14:11:13.801Z,11.51
2024-01-04T14:13:16.142Z,11.41
2024-01-04T14:15:19.424Z,11.13
2024-01-04T14:17:22.682Z,11.28
2024-01-04T14:19:25.750Z,11.25
2024-01-04T14:21:28.798Z,11.44
2024-01-04T14:23:32.193Z,11.61
2024-01-04T14:25:35.202Z,11.28
2024-01-04T14:27:40.279Z,11.27
2024-01-04T14:29:43.643Z,11.31
2024-01-04T14:31:47.663Z,11.62
2024-01-04T14:33:51.092Z,11.43
2024-01-04T14:35:57.847Z,11.30
2024-01-04T14:38:02.832Z,11.24
2024-01-04T14:40:06.849Z,11.42
2024-01-04T14:42:10.005Z,11.41
2024-01-04T14:44:14.668Z,11.36
2024-01-04T14:46:23.081Z,11.43
2024-01-04T14:48:26.175Z,11.37
2024-01-04T14:50:29.598Z,11.27
2024-01-04T14:52:32.602Z,11.12
2024-01-04T14:54:35.570Z,10.96
2024-01-04T14:56:40.657Z,10.61
2024-01-04T14:58:42.939Z,10.69
2024-01-04T15:00:47.612Z,10.79
2024-01-04T15:02:51.630Z,10.97
2024-01-04T15:04:57.721Z,11.24
2024-01-04T15:07:03.786Z,11.27
2024-01-04T15:09:08.108Z,10.74
2024-01-04T15:11:10.178Z,10.83
2024-01-04T15:13:14.366Z,11.04
2024-01-04T15:15:23.715Z,10.76
2024-01-04T15:17:34.408Z,10.74
2024-01-04T15:19:37.954Z,10.13
2024-01-04T15:21:41.044Z,10.87
2024-01-04T15:23:44.414Z,11.03
2024-01-04T15:25:47.454Z,10.45
2024-01-04T15:27:50.455Z,10.84
2024-01-04T15:29:53.632Z,11.02
2024-01-04T15:31:58.359Z,11.13
2024-01-04T15:34:03.055Z,10.89
2024-01-04T15:36:07.978Z,10.66
2024-01-04T15:38:11.927Z,10.28
2024-01-04T15:40:15.324Z,10.73
2024-01-04T15:42:18.411Z,10.45
2024-01-04T15:44:20.688Z,10.31
2024-01-04T15:46:24.041Z,10.60
2024-01-04T15:48:28.879Z,10.63
2024-01-04T15:50:34.126Z,10.53
2024-01-04T15:52:37.226Z,10.64
2024-01-04T15:54:40.304Z,10.56
2024-01-04T15:56:43.390Z,10.77
2024-01-04T15:58:47.809Z,10.70
2024-01-04T16:00:51.929Z,10.67
2024-01-04T16:02:55.881Z,10.80
2024-01-04T16:04:58.947Z,10.75
2024-01-04T16:07:05.784Z,10.82
2024-01-04T16:09:10.159Z,10.75
2024-01-04T16:11:13.356Z,10.90
2024-01-04T16:13:16.363Z,10.67
2024-01-04T16:15:18.924Z,10.46
2024-01-04T16:17:21.882Z,10.59
2024-01-04T16:19:25.024Z,10.96
2024-01-04T16:21:28.667Z,10.92
2024-01-04T16:23:33.054Z,10.61
2024-01-04T16:25:35.099Z,10.86
2024-01-04T16:27:39.453Z,10.55
2024-01-04T16:29:42.935Z,10.46
2024-01-04T16:31:46.149Z,10.34
2024-01-04T16:33:49.535Z,10.57
2024-01-04T16:35:52.699Z,10.60
2024-01-04T16:37:56.951Z,10.61
2024-01-04T16:40:01.552Z,10.72
2024-01-04T16:42:04.952Z,10.35
2024-01-04T16:44:06.956Z,10.61
2024-01-04T16:46:10.032Z,10.24
2024-01-04T16:48:13.304Z,10.44
2024-01-04T16:50:16.658Z,10.74
2024-01-04T16:52:20.103Z,10.62
2024-01-04T16:54:23.351Z,10.57
2024-01-04T16:56:27.931Z,10.33
2024-01-04T16:58:31.438Z,10.43
2024-01-04T17:00:33.967Z,10.39
2024-01-04T17:02:36.880Z,10.22
2024-01-04T17:04:40.864Z,9.97
2024-01-04T17:06:44.379Z,10.21
2024-01-04T17:08:47.676Z,10.43
2024-01-04T17:10:50.676Z,10.37
2024-01-04T17:12:55.156Z,10.38
2024-01-04T17:14:58.180Z,10.32
2024-01-04T17:17:01.194Z,10.49
2024-01-04T17:19:04.310Z,10.17
2024-01-04T17:21:07.630Z,10.10
2024-01-04T17:23:10.546Z,10.33
2024-01-04T17:25:13.198Z,10.27
2024-01-04T17:27:16.321Z,10.20
2024-01-04T17:29:20.788Z,9.73
2024-01-04T17:31:23.782Z,9.87
2024-01-04T17:33:26.996Z,10.16
2024-01-04T17:35:31.541Z,10.21
2024-01-04T17:37:34.889Z,10.13
2024-01-04T17:39:37.925Z,10.35
2024-01-04T17:41:41.929Z,9.92
2024-01-04T17:43:45.192Z,10.04
2024-01-04T17:45:49.017Z,10.01
2024-01-04T17:47:52.162Z,9.77
2024-01-04T17:49:54.391Z,10.19
2024-01-04T17:51:57.509Z,9.90
2024-01-04T17:54:03.413Z,9.84
2024-01-04T17:56:07.319Z,10.06
2024-01-04T17:58:10.369Z,10.07
2024-01-04T18:00:13.711Z,9.84
2024-01-04T18:02:18.476Z,10.01
2024-01-04T18:04:22.454Z,10.14
2024-01-04T18:06:25.945Z,10.13
2024-01-04T18:08:29.048Z,10.11
2024-01-04T18:10:32.172Z,9.96
2024-01-04T18:12:36.273Z,9.53
2024-01-04T18:14:39.492Z,9.94
2024-01-04T18:16:43.129Z,9.93
2024-01-04T18:18:47.858Z,10.07
2024-01-04T18:20:50.081Z,9.99
2024-01-04T18:22:55.358Z,9.81
2024-01-04T18:25:00.279Z,10.02
2024-01-04T18:27:03.670Z,9.93
2024-01-04T18:29:06.741Z,9.91
2024-01-04T18:31:10.715Z,9.75
2024-01-04T18:33:14.560Z,9.84
2024-01-04T18:35:22.082Z,9.77
2024-01-04T18:37:25.081Z,9.55
2024-01-04T18:39:29.739Z,9.67
2024-01-04T18:41:32.768Z,9.87
2024-01-04T18:43:37.201Z,9.89
2024-01-04T18:45:40.502Z,9.90
2024-01-04T18:47:43.162Z,9.64
2024-01-04T18:49:47.371Z,9.88
2024-01-04T18:51:56.572Z,10.07
2024-01-04T18:54:02.313Z,9.96
2024-01-04T18:56:07.541Z,9.94
2024-01-04T18:58:11.032Z,10.08
2024-01-04T19:00:14.579Z,10.07
2024-01-04T19:02:19.165Z,10.02
2024-01-04T19:04:22.379Z,10.14
2024-01-04T19:06:25.495Z,10.22
2024-01-04T19:08:30.105Z,10.28
2024-01-04T19:10:33.658Z,10.27
2024-01-04T19:12:37.824Z,10.18
2024-01-04T19:14:41.197Z,10.01
2024-01-04T19:16:47.841Z,10.06
2024-01-04T19:18:52.263Z,9.91
2024-01-04T19:20:56.722Z,10.01
2024-01-04T19:23:04.491Z,10.08
2024-01-04T19:25:14.478Z,10.14
2024-01-04T19:27:17.931Z,10.12
2024-01-04T19:29:20.975Z,9.96
2024-01-04T19:31:23.949Z,9.85
2024-01-04T19:33:27.051Z,9.68
2024-01-04T19:35:30.054Z,9.84
2024-01-04T19:37:32.984Z,9.90
2024-01-04T19:39:36.003Z,9.91
2024-01-04T19:41:40.789Z,9.79
2024-01-04T19:43:44.090Z,9.74
2024-01-04T19:45:53.910Z,9.67
2024-01-04T19:47:58.898Z,9.67
2024-01-04T19:50:03.264Z,9.66
2024-01-04T19:52:07.106Z,9.57
2024-01-04T19:54:13.665Z,9.59
2024-01-04T19:56:17.835Z,9.49
2024-01-04T19:58:22.442Z,9.53
2024-01-04T20:00:25.498Z,9.60
2024-01-04T20:02:29.688Z,9.74
2024-01-04T20:04:32.782Z,9.78
2024-01-04T20:06:35.900Z,9.87
2024-01-04T20:08:38.891Z,9.90
2024-01-04T20:10:41.808Z,9.92
2024-01-04T20:12:43.805Z,9.88
2024-01-04T20:14:48.112Z,9.93
2024-01-04T20:16:50.529Z,9.97
2024-01-04T20:18:54.880Z,10.01
2024-01-04T20:20:58.117Z,9.88
2024-01-04T20:23:00.153Z,9.99
2024-01-04T20:25:03.021Z,9.94
2024-01-04T20:27:05.545Z,9.88
2024-01-04T20:29:08.666Z,9.95
2024-01-04T20:31:13.250Z,9.92
2024-01-04T20:33:16.399Z,9.88
2024-01-04T20:35:19.672Z,9.55
2024-01-04T20:37:23.276Z,9.79
2024-01-04T20:39:26.414Z,9.69
2024-01-04T20:41:28.791Z,9.72
2024-01-04T20:43:31.775Z,9.65
2024-01-04T20:45:34.896Z,9.51
2024-01-04T20:47:39.396Z,9.18
2024-01-04T20:49:46.905Z,9.59
2024-01-04T20:51:50.255Z,9.51
2024-01-04T20:53:53.298Z,9.62
2024-01-04T20:55:57.477Z,9.46
2024-01-04T20:58:00.461Z,9.19
2024-01-04T21:00:04.034Z,9.18
2024-01-04T21:02:07.379Z,9.36
2024-01-04T21:04:12.048Z,9.26
2024-01-04T21:06:15.288Z,9.36
2024-01-04T21:08:20.371Z,9.55
2024-01-04T21:10:23.306Z,9.42
2024-01-04T21:12:27.649Z,9.53
2024-01-04T21:14:33.880Z,9.35
2024-01-04T21:16:36.998Z,9.10
2024-01-04T21:18:41.224Z,9.42
2024-01-04T21:20:46.487Z,9.46
2024-01-04T21:22:49.601Z,9.45
2024-01-04T21:24:52.603Z,9.47
2024-01-04T21:26:56.988Z,9.31
2024-01-04T21:29:00.867Z,9.38
2024-01-04T21:31:04.182Z,9.45
2024-01-04T21:33:07.792Z,9.52
2024-01-04T21:35:13.291Z,9.15
2024-01-04T21:37:18.529Z,9.46
2024-01-04T21:39:22.260Z,9.60
2024-01-04T21:41:25.361Z,9.66
2024-01-04T21:43:29.844Z,9.68
2024-01-04T21:45:32.892Z,9.69
2024-01-04T21:47:35.151Z,9.67
2024-01-04T21:49:38.470Z,9.58
2024-01-04T21:51:42.866Z,9.45
2024-01-04T21:53:49.364Z,9.61
2024-01-04T21:55:52.417Z,9.55
2024-01-04T21:57:55.530Z,9.59
2024-01-04T22:00:02.166Z,9.66
2024-01-04T22:02:07.405Z,9.63
2024-01-04T22:04:09.792Z,9.75
2024-01-04T22:06:13.044Z,9.72
2024-01-04T22:08:17.073Z,9.75
2024-01-04T22:10:28.016Z,9.68
2024-01-04T22:12:31.870Z,9.82
2024-01-04T22:14:34.885Z,9.74
2024-01-04T22:16:39.777Z,9.56
2024-01-04T22:18:45.733Z,9.44
2024-01-04T22:20:49.761Z,9.55
2024-01-04T22:22:52.727Z,9.63
2024-01-04T22:24:56.277Z,9.52
2024-01-04T22:27:01.650Z,9.73
2024-01-04T22:29:04.681Z,9.81
2024-01-04T22:31:07.926Z,9.91
2024-01-04T22:33:11.061Z,10.00
2024-01-04T22:35:15.052Z,9.97
2024-01-04T22:37:17.129Z,10.19
2024-01-04T22:39:20.131Z,10.26
2024-01-04T22:41:23.149Z,10.17
2024-01-04T22:43:27.497Z,10.05
2024-01-04T22:45:30.520Z,10.05
2024-01-04T22:47:33.531Z,10.13
2024-01-04T22:49:37.958Z,10.04
2024-01-04T22:51:40.191Z,10.12
2024-01-04T22:53:43.313Z,9.80
2024-01-04T22:55:45.364Z,9.98
2024-01-04T22:57:48.954Z,9.96
2024-01-04T22:59:55.886Z,9.85
2024-01-04T23:02:00.136Z,10.04
2024-01-04T23:04:03.310Z,9.92
2024-01-04T23:06:06.104Z,9.78
2024-01-04T23:08:09.076Z,9.96
2024-01-04T23:10:13.128Z,9.73
2024-01-04T23:12:16.367Z,9.93
2024-01-04T23:14:21.315Z,9.83
2024-01-04T23:16:25.710Z,9.76
2024-01-04T23:18:28.016Z,9.86
2024-01-04T23:20:31.126Z,9.77
2024-01-04T23:22:34.327Z,9.74
2024-01-04T23:24:40.979Z,9.84
2024-01-04T23:26:44.759Z,9.81
2024-01-04T23:28:47.964Z,9.70
2024-01-04T23:30:50.006Z,9.80
2024-01-04T23:32:54.486Z,9.89
2024-01-04T23:34:58.152Z,9.91
2024-01-04T23:37:01.308Z,9.62
2024-01-04T23:39:04.436Z,9.63
2024-01-04T23:41:07.557Z,9.65
2024-01-04T23:43:11.080Z,9.75
2024-01-04T23:45:13.092Z,9.56
2024-01-04T23:47:16.155Z,9.64
2024-01-04T23:49:20.655Z,9.61
2024-01-04T23:51:23.835Z,9.77
2024-01-04T23:53:26.815Z,9.74
2024-01-04T23:55:29.849Z,9.82
2024-01-04T23:57:32.281Z,9.59
2024-01-04T23:59:35.535Z,9.67
